createdAt,value
2023-06-11T03:01:38.026Z,96158.94
2023-06-11T03:04:05.391Z,96169.19
2023-06-11T03:06:32.955Z,96165.41
2023-06-11T03:08:59.959Z,96168.81
2023-06-11T03:11:27.250Z,96170.72
2023-06-11T03:13:53.771Z,96163.88
2023-06-11T03:16:20.447Z,96163.50
2023-06-11T03:18:47.024Z,96166.91
2023-06-11T03:21:13.611Z,96170.72
2023-06-11T03:23:40.207Z,96174.13
2023-06-11T03:26:06.771Z,96171.09
2023-06-11T03:28:33.334Z,96168.44
2023-06-11T03:30:59.888Z,96171.47
2023-06-11T03:33:26.415Z,96171.13
2023-06-11T03:35:52.960Z,96174.16
2023-06-11T03:38:19.497Z,96177.19
2023-06-11T03:40:46.129Z,96176.03
2023-06-11T03:43:12.705Z,96174.53
2023-06-11T03:45:39.244Z,96178.69
2023-06-11T03:48:07.003Z,96179.84
2023-06-11T03:50:33.578Z,96182.88
2023-06-11T03:53:00.293Z,96178.69
2023-06-11T03:55:27.211Z,96179.44
2023-06-11T03:57:53.781Z,96182.09
2023-06-11T04:00:20.414Z,96191.22
2023-06-11T04:02:46.985Z,96187.06
2023-06-11T04:05:13.726Z,96179.47
2023-06-11T04:07:41.223Z,96189.31
2023-06-11T04:10:08.996Z,96190.06
2023-06-11T04:12:35.955Z,96191.97
2023-06-11T04:15:02.431Z,96196.91
2023-06-11T04:17:29.106Z,96193.09
2023-06-11T04:19:55.732Z,96188.06
2023-06-11T04:22:22.220Z,96193.19
2023-06-11T04:24:49.032Z,96195.59
2023-06-11T04:27:15.645Z,96187.50
2023-06-11T04:29:45.931Z,96178.91
2023-06-11T04:32:12.530Z,96197.53
2023-06-11T04:34:40.003Z,96192.25
2023-06-11T04:37:09.750Z,96197.53
2023-06-11T04:39:36.833Z,96175.66
2023-06-11T04:42:03.476Z,96194.81
2023-06-11T04:44:30.537Z,96199.47
2023-06-11T04:46:59.343Z,96196.78
2023-06-11T04:49:25.992Z,96198.53
2023-06-11T04:51:55.462Z,96196.06
2023-06-11T04:54:22.627Z,96205.09
2023-06-11T04:56:50.008Z,96206.22
2023-06-11T04:59:17.099Z,96209.69
2023-06-11T05:01:48.149Z,96214.38
2023-06-11T05:04:15.794Z,96211.88
2023-06-11T05:06:49.432Z,96214.41
2023-06-11T05:09:17.374Z,96215.88
2023-06-11T05:11:45.211Z,96182.59
2023-06-11T05:14:12.593Z,96222.53
2023-06-11T05:16:40.431Z,96218.31
2023-06-11T05:19:07.427Z,96217.28
2023-06-11T05:21:34.144Z,96215.09
2023-06-11T05:24:08.148Z,96228.13
2023-06-11T05:26:36.529Z,96224.94
2023-06-11T05:29:04.696Z,96231.00
2023-06-11T05:31:31.990Z,96222.06
2023-06-11T05:33:58.998Z,96233.66
2023-06-11T05:36:25.601Z,96227.72
2023-06-11T05:38:52.902Z,96229.22
2023-06-11T05:41:20.586Z,96235.91
2023-06-11T05:43:47.932Z,96242.94
2023-06-11T05:46:15.489Z,96239.56
2023-06-11T05:48:43.256Z,96240.72
2023-06-11T05:51:11.392Z,96245.09
2023-06-11T05:53:38.089Z,96245.19
2023-06-11T05:56:06.245Z,96247.63
2023-06-11T05:58:34.424Z,96248.22
2023-06-11T06:01:05.291Z,96258.78
2023-06-11T06:03:33.251Z,96258.72
2023-06-11T06:06:02.497Z,96254.28
2023-06-11T06:08:30.812Z,96248.19
2023-06-11T06:10:57.980Z,96256.97
2023-06-11T06:13:25.452Z,96261.50
2023-06-11T06:15:52.343Z,96256.84
2023-06-11T06:18:19.030Z,96258.19
2023-06-11T06:20:45.913Z,96256.09
2023-06-11T06:23:12.440Z,96252.28
2023-06-11T06:25:39.522Z,96257.25
2023-06-11T06:28:07.497Z,96260.72
2023-06-11T06:30:34.294Z,96260.59
2023-06-11T06:33:01.600Z,96261.94
2023-06-11T06:35:31.023Z,96255.69
2023-06-11T06:37:58.622Z,96263.38
2023-06-11T06:40:25.279Z,96263.28
2023-06-11T06:42:52.236Z,96254.06
2023-06-11T06:45:18.969Z,96258.19
2023-06-11T06:55:22.600Z,96275.63
2023-06-11T06:57:52.433Z,96277.13
2023-06-11T07:04:19.735Z,96273.09
2023-06-11T07:10:37.592Z,96277.41
2023-06-11T07:13:04.204Z,96276.22
2023-06-11T07:15:36.088Z,96269.53
2023-06-11T07:25:32.203Z,96273.84
2023-06-11T07:28:05.049Z,96272.16
2023-06-11T07:30:33.478Z,96277.31
2023-06-11T07:33:03.382Z,96272.22
2023-06-11T07:35:30.709Z,96270.63
2023-06-11T07:37:58.077Z,96272.69
2023-06-11T07:40:24.849Z,96274.75
2023-06-11T07:42:51.356Z,96284.59
2023-06-11T07:45:51.933Z,96274.84
2023-06-11T07:48:18.468Z,96259.53
2023-06-11T08:06:05.876Z,96297.00
2023-06-11T08:08:32.531Z,96298.41
2023-06-11T08:11:38.508Z,96293.53
2023-06-11T08:17:10.686Z,96279.56
2023-06-11T08:30:17.333Z,96294.78
2023-06-11T08:32:43.949Z,96287.81
2023-06-11T08:35:10.674Z,96289.16
2023-06-11T08:37:37.224Z,96281.13
2023-06-11T08:40:51.456Z,96292.50
2023-06-11T08:43:42.985Z,96288.00
2023-06-11T09:16:50.276Z,96289.06
2023-06-11T09:34:41.580Z,96284.88
2023-06-11T10:11:12.622Z,96288.06
2023-06-11T10:17:29.361Z,96298.19
2023-06-11T10:20:54.814Z,96295.50
2023-06-11T10:38:39.682Z,96275.56
2023-06-11T10:48:51.221Z,96298.34
2023-06-11T10:51:18.487Z,96291.44
2023-06-11T11:01:26.541Z,96283.88
2023-06-11T11:11:29.985Z,96283.09
2023-06-11T11:18:25.435Z,96285.59
2023-06-11T11:20:56.146Z,96276.38
2023-06-11T11:27:06.645Z,96271.88
2023-06-11T11:29:39.717Z,96272.84
2023-06-11T11:32:08.834Z,96277.94
2023-06-11T11:46:39.357Z,96276.66
2023-06-11T11:49:56.639Z,96272.63
2023-06-11T11:52:24.671Z,96275.53
2023-06-11T12:06:19.925Z,96253.63
2023-06-11T12:08:47.198Z,96262.66
2023-06-11T12:21:27.862Z,96248.25
2023-06-11T12:43:11.974Z,96240.41
2023-06-11T12:45:39.097Z,96238.63
2023-06-11T12:48:06.608Z,96239.47
2023-06-11T13:13:23.301Z,96223.56
2023-06-11T13:16:06.188Z,96215.91
2023-06-11T13:18:48.151Z,96223.28
2023-06-11T13:21:37.560Z,96222.34
2023-06-11T13:24:34.789Z,96216.38
2023-06-11T13:27:01.293Z,96206.97
2023-06-11T13:29:51.137Z,96192.50
2023-06-11T13:36:08.143Z,96209.31
2023-06-11T13:42:39.843Z,96211.09
2023-06-11T13:45:09.566Z,96206.22
2023-06-11T13:47:36.512Z,96213.53
2023-06-11T13:50:03.264Z,96213.06
2023-06-11T14:12:09.238Z,96187.63
2023-06-11T14:14:44.259Z,96190.50
2023-06-11T14:17:20.115Z,96186.69
2023-06-11T14:19:52.079Z,96182.72
2023-06-11T14:22:26.845Z,96183.25
2023-06-11T14:25:04.986Z,96176.13
2023-06-11T14:28:04.579Z,96177.22
2023-06-11T14:30:39.537Z,96182.91
2023-06-11T14:33:06.802Z,96186.91
2023-06-11T14:35:33.393Z,96181.78
2023-06-11T14:38:04.189Z,96178.72
2023-06-11T14:41:04.713Z,96177.09
2023-06-11T14:47:38.145Z,96163.28
2023-06-11T14:50:06.157Z,96166.28
2023-06-11T14:52:32.860Z,96175.41
2023-06-11T14:54:59.663Z,96174.66
2023-06-11T14:57:26.728Z,96164.38
2023-06-11T14:59:53.460Z,96173.22
2023-06-11T15:02:20.052Z,96163.97
2023-06-11T15:04:46.817Z,96165.72
2023-06-11T15:14:53.238Z,96154.84
2023-06-11T15:17:23.323Z,96144.63
2023-06-11T15:19:58.995Z,96142.09
2023-06-11T15:22:28.934Z,96147.81
2023-06-11T15:24:56.801Z,96141.03
2023-06-11T15:27:24.808Z,96141.78
2023-06-11T15:29:53.383Z,96151.72
2023-06-11T15:32:21.573Z,96143.00
2023-06-11T15:34:49.199Z,96141.34
2023-06-11T15:37:17.430Z,96137.13
2023-06-11T15:39:55.050Z,96138.31
2023-06-11T15:42:22.814Z,96134.56
2023-06-11T15:44:49.796Z,96130.47
2023-06-11T15:47:18.442Z,96128.84
2023-06-11T15:49:45.841Z,96126.94
2023-06-11T15:52:12.936Z,96123.25
2023-06-11T15:54:39.751Z,96120.97
2023-06-11T15:57:09.834Z,96116.16
2023-06-11T15:59:37.154Z,96120.34
2023-06-11T16:02:04.194Z,96122.06
2023-06-11T16:04:34.571Z,96119.34
2023-06-11T16:07:01.841Z,96133.03
2023-06-11T16:09:28.993Z,96126.16
2023-06-11T16:11:55.897Z,96133.06
2023-06-11T16:14:22.467Z,96129.13
2023-06-11T16:17:09.559Z,96140.47
2023-06-11T17:09:14.784Z,96135.13
2023-06-11T17:11:41.856Z,96127.34
2023-06-11T17:14:08.546Z,96127.31
2023-06-11T17:16:40.138Z,96132.53
2023-06-11T17:19:09.705Z,96129.81
2023-06-11T17:21:52.975Z,96137.09
2023-06-11T17:24:20.786Z,96136.22
2023-06-11T17:26:48.730Z,96137.84
2023-06-11T17:29:17.286Z,96131.22
2023-06-11T17:31:45.690Z,96138.88
2023-06-11T17:34:12.460Z,96136.44
2023-06-11T17:36:40.503Z,96132.16
2023-06-11T17:39:07.221Z,96137.78
2023-06-11T17:41:33.973Z,96139.66
2023-06-11T17:44:00.581Z,96133.94
2023-06-11T17:46:27.450Z,96137.63
2023-06-11T17:48:54.890Z,96145.09
2023-06-11T17:51:22.275Z,96142.09
2023-06-11T17:53:51.200Z,96125.81
2023-06-11T17:56:18.124Z,96135.41
2023-06-11T17:58:44.923Z,96129.84
2023-06-11T18:01:11.592Z,96139.63
2023-06-11T18:03:38.310Z,96143.94
2023-06-11T18:06:05.079Z,96146.84
2023-06-11T18:08:31.681Z,96150.72
2023-06-11T18:10:58.383Z,96140.38
2023-06-11T18:13:25.056Z,96146.53
2023-06-11T18:15:51.732Z,96153.97
2023-06-11T18:18:18.467Z,96151.47
2023-06-11T18:20:46.034Z,96159.03
2023-06-11T18:23:12.739Z,96150.97
2023-06-11T18:25:39.314Z,96154.34
2023-06-11T18:28:05.909Z,96153.53
2023-06-11T18:30:32.439Z,96150.94
2023-06-11T18:32:59.065Z,96160.97
2023-06-11T18:35:25.688Z,96154.06
2023-06-11T18:37:52.267Z,96163.63
2023-06-11T18:40:18.761Z,96165.97
2023-06-11T18:42:45.294Z,96174.56
2023-06-11T18:45:11.973Z,96167.91
2023-06-11T18:47:40.223Z,96159.53
2023-06-11T18:50:11.077Z,96178.31
2023-06-11T18:52:38.215Z,96174.72
2023-06-11T18:55:04.937Z,96168.25
2023-06-11T18:57:31.430Z,96179.44
2023-06-11T18:59:58.751Z,96185.00
2023-06-11T19:02:25.372Z,96181.78
2023-06-11T19:04:51.873Z,96184.84
2023-06-11T19:07:18.461Z,96183.75
2023-06-11T19:09:44.944Z,96189.97
2023-06-11T19:12:12.292Z,96192.75
2023-06-11T19:14:38.855Z,96183.41
2023-06-11T19:17:05.660Z,96190.31
2023-06-11T19:19:32.262Z,96200.88
2023-06-11T19:21:58.936Z,96182.78
2023-06-11T19:24:25.761Z,96198.22
2023-06-11T19:26:52.300Z,96198.38
2023-06-11T19:29:19.860Z,96197.72
2023-06-11T19:31:47.427Z,96208.78
2023-06-11T19:34:15.100Z,96201.63
2023-06-11T19:36:43.460Z,96205.91
2023-06-11T19:39:09.942Z,96207.63
2023-06-11T19:41:37.025Z,96219.59
2023-06-11T19:44:04.123Z,96211.94
2023-06-11T19:46:35.505Z,96227.66
2023-06-11T19:49:03.488Z,96219.28
2023-06-11T19:51:30.077Z,96215.88
2023-06-11T19:53:58.010Z,96222.47
2023-06-11T19:56:25.084Z,96235.97
2023-06-11T19:58:51.817Z,96207.94
2023-06-11T20:01:19.160Z,96223.84
2023-06-11T20:03:45.868Z,96233.53
2023-06-11T20:06:13.300Z,96158.25
2023-06-11T20:08:40.030Z,96223.84
2023-06-11T20:11:09.809Z,96233.53
2023-06-11T20:13:37.191Z,96233.66
2023-06-11T20:16:04.411Z,96233.84
2023-06-11T20:18:33.838Z,96235.00
2023-06-11T20:21:00.305Z,96230.63
2023-06-11T20:23:26.836Z,96234.81
2023-06-11T20:25:53.454Z,96235.59
2023-06-11T20:28:21.066Z,96245.09
2023-06-11T20:30:47.552Z,96240.88
2023-06-11T20:33:14.172Z,96234.31
2023-06-11T20:35:40.782Z,96237.16
2023-06-11T20:38:07.303Z,96237.22
2023-06-11T20:40:33.833Z,96224.44
2023-06-11T20:43:00.355Z,96232.44
2023-06-11T20:45:26.830Z,96233.94
2023-06-11T20:47:56.132Z,96237.09
2023-06-11T20:50:23.741Z,96234.66
2023-06-11T20:52:50.922Z,96245.69
2023-06-11T20:55:17.728Z,96245.44
2023-06-11T20:57:44.260Z,96240.94
2023-06-11T21:00:11.366Z,96244.38
2023-06-11T21:02:38.063Z,96243.34
2023-06-11T21:05:04.829Z,96240.00
2023-06-11T21:07:31.505Z,96242.34
2023-06-11T21:09:58.055Z,96251.53
2023-06-11T21:12:26.120Z,96242.41
2023-06-11T21:14:52.690Z,96241.28
2023-06-11T21:17:19.237Z,96239.44
2023-06-11T21:19:45.741Z,96244.44
2023-06-11T21:22:12.271Z,96240.66
2023-06-11T21:24:38.766Z,96232.28
2023-06-11T21:27:08.446Z,96222.81
2023-06-11T21:29:35.028Z,96230.13
